Time;durP1;ratioP1;P1;durP2;ratioP2;P2;SDS_P1;SDS_P2;PMS_P1;PMS_P2;Temp;Humidity;BMP_temperature;BMP_pressure;BME280_temperature;BME280_humidity;BME280_pressure;Samples;Min_cycle;Max_cycle;Signal;HPM_P1;HPM_P2
2023/08/08 00:01:36;;;;;;;6.50;2.58;;;16.70;99.90;;;;;;5056362;28;20025;-68
2023/08/08 00:04:01;;;;;;;8.07;2.00;;;16.70;99.90;;;;;;5067843;28;20388;-68
2023/08/08 00:06:27;;;;;;;7.93;2.58;;;16.70;99.90;;;;;;5052059;28;20067;-68
2023/08/08 00:08:52;;;;;;;8.10;2.33;;;16.70;99.90;;;;;;5061795;28;20021;-68
2023/08/08 00:11:18;;;;;;;8.23;2.35;;;16.70;99.90;;;;;;5058600;28;20049;-68
2023/08/08 00:13:44;;;;;;;5.68;2.50;;;16.80;99.90;;;;;;5068232;28;20049;-68
2023/08/08 00:16:09;;;;;;;8.13;2.78;;;16.80;99.90;;;;;;5055392;28;20029;-68
2023/08/08 00:18:35;;;;;;;8.93;2.58;;;16.80;99.90;;;;;;5067779;28;20422;-68
2023/08/08 00:21:01;;;;;;;8.48;2.30;;;16.90;99.90;;;;;;5060966;28;20507;-68
2023/08/08 00:23:26;;;;;;;7.60;2.70;;;16.90;99.90;;;;;;5066361;28;20457;-68
2023/08/08 00:25:52;;;;;;;8.57;2.30;;;16.90;99.90;;;;;;5055503;28;20131;-67
2023/08/08 00:28:18;;;;;;;10.05;2.97;;;17.00;99.90;;;;;;5067111;28;20049;-67
2023/08/08 00:30:43;;;;;;;7.95;2.33;;;17.00;99.90;;;;;;5052514;28;20357;-68
2023/08/08 00:33:09;;;;;;;9.88;2.38;;;17.10;99.90;;;;;;5053110;28;20049;-68
2023/08/08 00:35:35;;;;;;;8.15;2.45;;;17.10;99.90;;;;;;5052796;28;20075;-69
2023/08/08 00:38:00;;;;;;;9.27;2.55;;;17.20;99.90;;;;;;5055178;28;20036;-68
2023/08/08 00:40:26;;;;;;;10.25;2.72;;;17.20;99.90;;;;;;5052959;28;20028;-68
2023/08/08 00:42:52;;;;;;;7.30;2.22;;;17.20;99.90;;;;;;5052426;28;20029;-68
2023/08/08 00:45:17;;;;;;;7.57;2.47;;;17.20;99.90;;;;;;5050614;28;20108;-68
2023/08/08 00:47:46;;;;;;;11.50;2.40;;;17.20;99.90;;;;;;5053079;28;20116;-68
2023/08/08 00:50:13;;;;;;;12.60;2.65;;;17.20;99.90;;;;;;5048556;28;20028;-68
2023/08/08 00:52:44;;;;;;;9.90;2.40;;;17.20;99.90;;;;;;5052471;28;20479;-69
2023/08/08 00:55:11;;;;;;;6.22;1.80;;;17.20;99.90;;;;;;5050867;28;20037;-68
2023/08/08 00:57:38;;;;;;;5.40;1.58;;;17.30;99.90;;;;;;5052704;28;20029;-68
2023/08/08 01:00:06;;;;;;;8.02;2.28;;;17.30;99.90;;;;;;5055550;28;20060;-68
2023/08/08 01:02:31;;;;;;;8.35;2.00;;;17.30;99.90;;;;;;5065560;28;20025;-68
2023/08/08 01:04:57;;;;;;;7.55;2.00;;;17.30;99.90;;;;;;5055925;28;20021;-68
2023/08/08 01:07:33;;;;;;;9.50;2.58;;;17.20;99.90;;;;;;5069317;28;20361;-67
2023/08/08 01:10:07;;;;;;;9.00;2.67;;;17.20;99.90;;;;;;5059061;28;20033;-67
2023/08/08 01:12:59;;;;;;;7.65;2.42;;;17.20;99.90;;;;;;5068281;28;20017;-67
2023/08/08 01:15:25;;;;;;;11.88;4.47;;;17.20;99.90;;;;;;5068836;28;20060;-67
2023/08/08 01:17:51;;;;;;;9.77;3.60;;;17.10;99.90;;;;;;5058641;28;20033;-68
2023/08/08 01:20:18;;;;;;;7.13;2.05;;;17.10;99.90;;;;;;5070888;28;20457;-68
2023/08/08 01:23:06;;;;;;;10.23;2.80;;;17.00;99.90;;;;;;5063312;28;20024;-68
2023/08/08 01:25:32;;;;;;;9.02;2.67;;;17.00;99.90;;;;;;5057150;28;20036;-68
2023/08/08 01:27:58;;;;;;;9.10;3.30;;;17.00;99.90;;;;;;5068485;28;20028;-67
2023/08/08 01:30:23;;;;;;;5.25;2.03;;;17.00;99.90;;;;;;5068143;28;20090;-67
2023/08/08 01:32:49;;;;;;;9.80;2.75;;;17.00;99.90;;;;;;5064002;28;20020;-68
2023/08/08 01:35:15;;;;;;;9.32;2.72;;;17.00;99.90;;;;;;5062549;28;20245;-68
2023/08/08 01:37:48;;;;;;;5.20;2.25;;;17.00;99.90;;;;;;5071050;28;20024;-67
2023/08/08 01:40:17;;;;;;;8.10;2.40;;;17.00;99.90;;;;;;5042240;28;20376;-67
2023/08/08 01:42:46;;;;;;;9.13;2.30;;;16.90;99.90;;;;;;5068970;28;20025;-67
2023/08/08 01:45:12;;;;;;;11.10;2.55;;;16.90;99.90;;;;;;5062583;28;20068;-68
2023/08/08 01:47:37;;;;;;;10.45;3.03;;;16.90;99.90;;;;;;5070402;28;20067;-67
2023/08/08 01:50:03;;;;;;;8.73;2.70;;;16.80;99.90;;;;;;5058033;28;20064;-68
2023/08/08 01:52:29;;;;;;;10.60;2.50;;;16.80;99.90;;;;;;5064627;28;20063;-67
2023/08/08 01:54:54;;;;;;;10.02;2.47;;;16.80;99.90;;;;;;5064441;28;20052;-67
2023/08/08 01:57:20;;;;;;;5.30;1.90;;;16.80;99.90;;;;;;5068052;28;20024;-67
2023/08/08 01:59:46;;;;;;;10.98;2.40;;;16.70;99.90;;;;;;5057347;28;20032;-67
2023/08/08 02:02:12;;;;;;;9.05;2.30;;;16.80;99.90;;;;;;5053730;28;20056;-67
2023/08/08 02:04:37;;;;;;;8.50;1.98;;;16.70;99.90;;;;;;5053488;28;20029;-67
2023/08/08 02:07:04;;;;;;;9.02;2.00;;;16.70;99.90;;;;;;5054009;28;20029;-67
2023/08/08 02:09:29;;;;;;;5.05;1.85;;;16.60;99.90;;;;;;5053073;28;20029;-68
2023/08/08 02:11:55;;;;;;;6.03;2.08;;;16.60;99.90;;;;;;5053795;28;20032;-68
2023/08/08 02:14:20;;;;;;;6.32;2.40;;;16.50;99.90;;;;;;5053489;28;20029;-68
2023/08/08 02:16:46;;;;;;;11.18;1.95;;;16.50;99.90;;;;;;5054138;28;20025;-68
2023/08/08 02:19:12;;;;;;;8.65;1.77;;;16.50;99.90;;;;;;5053731;28;20112;-67
2023/08/08 02:21:37;;;;;;;8.05;2.00;;;16.50;99.90;;;;;;5054011;28;20055;-67
2023/08/08 02:24:03;;;;;;;10.02;2.60;;;16.50;99.90;;;;;;5054135;28;20025;-67
2023/08/08 02:26:28;;;;;;;7.18;2.00;;;16.50;99.90;;;;;;5057521;28;20564;-67
2023/08/08 02:28:54;;;;;;;11.90;2.22;;;16.50;99.90;;;;;;5068699;28;20025;-67
2023/08/08 02:31:20;;;;;;;7.00;1.90;;;16.60;99.90;;;;;;5057342;28;20024;-68
2023/08/08 02:33:48;;;;;;;7.00;2.30;;;16.60;99.90;;;;;;5069282;28;20151;-67
2023/08/08 02:36:13;;;;;;;10.10;1.77;;;16.60;99.90;;;;;;5062381;28;20056;-68
2023/08/08 02:38:39;;;;;;;5.40;2.13;;;16.60;99.90;;;;;;5062039;28;20511;-67
2023/08/08 02:41:04;;;;;;;11.93;1.92;;;16.50;99.90;;;;;;5069282;28;20106;-67
2023/08/08 02:43:30;;;;;;;9.63;2.20;;;16.50;99.90;;;;;;5057026;28;20029;-68
2023/08/08 02:45:56;;;;;;;7.80;1.70;;;16.50;99.90;;;;;;5067792;28;20099;-68
2023/08/08 02:48:21;;;;;;;8.27;1.80;;;16.50;99.90;;;;;;5062815;28;20027;-68
2023/08/08 02:50:47;;;;;;;7.25;2.00;;;16.40;99.90;;;;;;5060945;28;20056;-68
2023/08/08 02:53:12;;;;;;;8.65;1.88;;;16.40;99.90;;;;;;5070240;28;20472;-66
2023/08/08 02:55:38;;;;;;;7.30;1.77;;;16.30;99.90;;;;;;5056796;28;20074;-67
2023/08/08 02:58:03;;;;;;;8.45;1.92;;;16.30;99.90;;;;;;5066558;28;20484;-67
2023/08/08 03:00:29;;;;;;;8.50;1.80;;;16.20;99.90;;;;;;5063887;28;20063;-67
2023/08/08 03:02:54;;;;;;;8.32;1.67;;;16.20;99.90;;;;;;5059761;28;20070;-67
2023/08/08 03:05:20;;;;;;;7.60;1.70;;;16.10;99.90;;;;;;5069909;28;20070;-67
2023/08/08 03:07:46;;;;;;;8.85;1.90;;;16.10;99.90;;;;;;5057791;28;20052;-67
2023/08/08 03:10:12;;;;;;;7.40;1.92;;;16.10;99.90;;;;;;5065206;28;20059;-67
2023/08/08 03:12:39;;;;;;;7.55;1.90;;;16.00;99.90;;;;;;5063874;28;20834;-67
2023/08/08 03:15:05;;;;;;;10.50;1.88;;;16.00;99.90;;;;;;5058012;28;20045;-68
2023/08/08 03:17:31;;;;;;;8.40;2.17;;;16.00;99.90;;;;;;5068162;28;20387;-67
2023/08/08 03:19:56;;;;;;;10.55;2.08;;;15.90;99.90;;;;;;5059183;28;20456;-68
2023/08/08 03:22:22;;;;;;;8.63;2.30;;;15.90;99.90;;;;;;5073093;28;20028;-67
2023/08/08 03:24:47;;;;;;;11.70;2.45;;;15.90;99.90;;;;;;5059037;28;20032;-67
2023/08/08 03:27:13;;;;;;;7.32;1.98;;;15.90;99.90;;;;;;5069549;28;20044;-67
2023/08/08 03:29:38;;;;;;;6.55;1.98;;;15.90;99.90;;;;;;5032963;28;20029;-67
2023/08/08 03:32:04;;;;;;;8.52;1.90;;;15.90;99.90;;;;;;5046645;28;20021;-67
2023/08/08 03:34:30;;;;;;;7.00;1.83;;;15.90;99.90;;;;;;5062282;28;20060;-67
2023/08/08 03:36:56;;;;;;;8.73;2.10;;;15.90;99.90;;;;;;5067298;28;20361;-66
2023/08/08 03:39:21;;;;;;;7.45;2.58;;;15.90;99.90;;;;;;5057585;28;20028;-68
2023/08/08 03:41:47;;;;;;;7.85;2.10;;;16.00;99.90;;;;;;5063236;28;20020;-67
2023/08/08 03:44:12;;;;;;;9.20;2.30;;;16.00;99.90;;;;;;5064246;28;20380;-68
2023/08/08 03:46:38;;;;;;;11.40;2.47;;;16.10;99.90;;;;;;5064062;28;20136;-68
2023/08/08 03:49:03;;;;;;;8.95;2.50;;;16.10;99.90;;;;;;5057470;28;20381;-68
2023/08/08 03:51:29;;;;;;;10.50;2.28;;;16.10;99.90;;;;;;5069080;28;20492;-68
2023/08/08 03:53:55;;;;;;;7.57;2.15;;;16.10;99.90;;;;;;5058177;28;20484;-67
2023/08/08 03:56:20;;;;;;;11.27;2.35;;;16.10;99.90;;;;;;5062984;28;20021;-68
2023/08/08 03:58:46;;;;;;;9.57;2.22;;;16.10;99.90;;;;;;5064947;28;20028;-67
2023/08/08 04:01:11;;;;;;;6.60;2.13;;;16.10;99.90;;;;;;5055852;28;20029;-67
2023/08/08 04:03:37;;;;;;;8.60;2.15;;;16.10;99.90;;;;;;5069247;28;20025;-68
2023/08/08 04:06:03;;;;;;;11.30;2.25;;;16.00;99.90;;;;;;5059179;28;20017;-67
2023/08/08 04:08:28;;;;;;;8.52;1.95;;;16.00;99.90;;;;;;5062062;28;20032;-67
2023/08/08 04:10:54;;;;;;;6.57;1.95;;;15.90;99.90;;;;;;5066606;28;20456;-67
2023/08/08 04:13:20;;;;;;;11.20;2.00;;;15.80;99.90;;;;;;5055992;28;20025;-67
2023/08/08 04:15:45;;;;;;;9.40;2.05;;;15.80;99.90;;;;;;5067992;28;20473;-68
2023/08/08 04:18:11;;;;;;;7.88;1.65;;;15.70;99.90;;;;;;5060209;28;20031;-66
2023/08/08 04:20:37;;;;;;;6.88;1.77;;;15.70;99.90;;;;;;5060856;28;20116;-67
2023/08/08 04:23:02;;;;;;;9.27;1.77;;;15.70;99.90;;;;;;5067140;28;20024;-67
2023/08/08 04:25:28;;;;;;;8.63;2.10;;;15.70;99.90;;;;;;5055595;28;20025;-66
2023/08/08 04:27:53;;;;;;;6.97;1.70;;;15.60;99.90;;;;;;5066645;28;20776;-67
2023/08/08 04:30:19;;;;;;;7.97;2.10;;;15.60;99.90;;;;;;5061205;28;20039;-68
2023/08/08 04:32:45;;;;;;;10.57;2.08;;;15.60;99.90;;;;;;5059624;28;20025;-67
2023/08/08 04:35:11;;;;;;;7.63;1.98;;;15.60;99.90;;;;;;5064221;28;20246;-67
2023/08/08 04:37:36;;;;;;;9.50;1.75;;;15.60;99.90;;;;;;5061637;28;20100;-68
2023/08/08 04:40:02;;;;;;;8.07;2.20;;;15.60;99.90;;;;;;5072167;28;20021;-66
2023/08/08 04:42:28;;;;;;;6.00;1.98;;;15.60;99.90;;;;;;5069239;28;20027;-67
2023/08/08 04:44:53;;;;;;;6.78;1.90;;;15.70;99.90;;;;;;5065139;28;20036;-67
2023/08/08 04:47:19;;;;;;;5.55;2.28;;;15.70;99.90;;;;;;5075055;28;20020;-69
2023/08/08 04:49:44;;;;;;;7.18;2.03;;;15.70;99.90;;;;;;5061531;28;20426;-66
2023/08/08 04:52:10;;;;;;;7.72;1.90;;;15.70;99.90;;;;;;5070598;28;20090;-67
2023/08/08 04:54:35;;;;;;;6.80;1.85;;;15.80;99.90;;;;;;5069743;28;20039;-67
2023/08/08 04:57:01;;;;;;;7.00;1.77;;;15.80;99.90;;;;;;5063900;28;20068;-67
2023/08/08 04:59:26;;;;;;;7.05;1.90;;;15.80;99.90;;;;;;5074834;28;20031;-67
2023/08/08 05:01:52;;;;;;;7.45;1.80;;;15.80;99.90;;;;;;5063668;28;20112;-68
2023/08/08 05:04:18;;;;;;;5.68;1.80;;;15.90;99.90;;;;;;5069717;28;20036;-67
2023/08/08 05:06:43;;;;;;;9.45;1.92;;;16.00;99.90;;;;;;5071154;28;20032;-67
2023/08/08 05:09:09;;;;;;;6.72;1.40;;;16.00;99.90;;;;;;5062701;28;20075;-68
2023/08/08 05:11:35;;;;;;;6.88;1.73;;;16.00;99.90;;;;;;5075246;28;20048;-66
2023/08/08 05:14:02;;;;;;;9.65;2.10;;;16.10;99.90;;;;;;5064890;28;20476;-67
2023/08/08 05:16:27;;;;;;;9.70;1.85;;;16.10;99.90;;;;;;5068329;28;20029;-67
2023/08/08 05:18:53;;;;;;;7.80;1.90;;;16.30;99.90;;;;;;5072075;28;20031;-67
2023/08/08 05:21:19;;;;;;;5.97;1.58;;;16.30;99.90;;;;;;5061411;28;20121;-67
2023/08/08 05:23:45;;;;;;;5.38;1.40;;;16.40;99.90;;;;;;5073815;28;20036;-67
2023/08/08 05:26:11;;;;;;;7.60;1.58;;;16.40;99.90;;;;;;5066420;28;20028;-67
2023/08/08 05:28:36;;;;;;;8.88;1.40;;;16.50;99.90;;;;;;5067155;28;20029;-67
2023/08/08 05:31:02;;;;;;;6.68;1.60;;;16.50;99.90;;;;;;5073308;28;20036;-67
2023/08/08 05:33:27;;;;;;;6.68;1.33;;;16.60;99.90;;;;;;5061288;28;20388;-67
2023/08/08 05:35:53;;;;;;;5.05;1.30;;;16.60;99.90;;;;;;5072883;28;20041;-68
2023/08/08 05:38:18;;;;;;;7.40;1.33;;;16.60;99.90;;;;;;5067518;28;20024;-68
2023/08/08 05:40:44;;;;;;;6.38;1.58;;;16.60;99.90;;;;;;5065684;28;20040;-68
2023/08/08 05:43:09;;;;;;;4.90;1.20;;;16.60;99.90;;;;;;5074184;28;20388;-68
2023/08/08 05:45:35;;;;;;;10.90;1.33;;;16.60;99.90;;;;;;5061280;28;20039;-68
2023/08/08 05:48:00;;;;;;;5.40;1.60;;;16.60;99.90;;;;;;5069457;28;20025;-68
2023/08/08 05:50:28;;;;;;;6.85;1.50;;;16.70;99.90;;;;;;5065066;28;20025;-68
2023/08/08 05:52:53;;;;;;;7.55;1.50;;;16.70;99.90;;;;;;5061098;28;20087;-66
2023/08/08 05:55:19;;;;;;;5.57;1.35;;;16.90;99.90;;;;;;5070162;28;20044;-67
2023/08/08 05:57:44;;;;;;;9.07;1.60;;;17.10;99.90;;;;;;5059194;28;20477;-67
2023/08/08 06:00:11;;;;;;;8.48;1.98;;;17.20;99.90;;;;;;5066598;28;20032;-68
2023/08/08 06:02:37;;;;;;;4.50;1.30;;;17.30;99.90;;;;;;5066478;28;20036;-67
2023/08/08 06:05:03;;;;;;;8.13;1.70;;;17.40;99.90;;;;;;5059884;28;20024;-67
2023/08/08 06:07:29;;;;;;;6.75;1.25;;;17.50;99.90;;;;;;5071308;28;20032;-68
2023/08/08 06:09:55;;;;;;;4.07;1.27;;;17.50;99.90;;;;;;5060441;28;20051;-67
2023/08/08 06:12:20;;;;;;;5.68;1.38;;;17.60;99.90;;;;;;5065295;28;20025;-67
2023/08/08 06:14:46;;;;;;;5.78;1.42;;;17.60;99.90;;;;;;5067190;28;20048;-68
2023/08/08 06:17:11;;;;;;;6.43;1.10;;;17.70;99.90;;;;;;5058321;28;20063;-67
2023/08/08 06:19:37;;;;;;;5.88;1.30;;;17.90;99.90;;;;;;5070997;28;20025;-67
2023/08/08 06:22:03;;;;;;;7.10;1.30;;;18.20;99.90;;;;;;5061214;28;20166;-67
2023/08/08 06:24:28;;;;;;;7.65;1.55;;;18.30;99.90;;;;;;5064096;28;20029;-67
2023/08/08 06:26:54;;;;;;;8.52;1.80;;;18.40;99.90;;;;;;5068044;28;20022;-68
2023/08/08 06:29:19;;;;;;;4.45;1.00;;;18.60;99.90;;;;;;5057630;28;20035;-68
2023/08/08 06:31:45;;;;;;;4.75;1.10;;;18.90;99.90;;;;;;5070069;28;20020;-67
2023/08/08 06:34:10;;;;;;;4.43;1.10;;;19.40;99.90;;;;;;5062171;28;20084;-68
2023/08/08 06:36:36;;;;;;;6.95;1.15;;;20.20;99.90;;;;;;5062835;28;20499;-68
2023/08/08 06:39:02;;;;;;;7.05;1.10;;;20.90;99.90;;;;;;5069619;28;20449;-66
2023/08/08 06:41:27;;;;;;;3.03;0.73;;;22.00;99.90;;;;;;5057314;28;20052;-66
2023/08/08 06:43:53;;;;;;;6.68;1.00;;;22.80;99.90;;;;;;5068186;28;20025;-68
2023/08/08 06:46:20;;;;;;;6.18;1.15;;;23.30;99.30;;;;;;5063057;28;20379;-68
2023/08/08 06:48:46;;;;;;;3.75;1.20;;;23.90;99.00;;;;;;5061277;28;20029;-67
2023/08/08 06:51:12;;;;;;;6.40;1.25;;;24.20;97.60;;;;;;5070406;28;20114;-65
2023/08/08 06:53:38;;;;;;;4.85;1.17;;;24.00;98.00;;;;;;5056968;28;20435;-66
2023/08/08 06:56:04;;;;;;;5.97;1.73;;;24.00;98.00;;;;;;5066406;28;20533;-65
2023/08/08 06:58:29;;;;;;;6.55;1.20;;;23.90;97.70;;;;;;5064143;28;20028;-66
2023/08/08 07:00:55;;;;;;;5.90;1.10;;;23.60;97.70;;;;;;5058475;28;20392;-66
2023/08/08 07:03:20;;;;;;;2.72;0.73;;;23.90;97.80;;;;;;5069625;28;20025;-66
2023/08/08 07:05:47;;;;;;;3.65;1.00;;;24.50;96.70;;;;;;5058118;28;20055;-66
2023/08/08 07:08:13;;;;;;;9.00;2.53;;;24.70;96.70;;;;;;5065505;28;20036;-66
2023/08/08 07:10:38;;;;;;;4.50;1.75;;;24.30;97.30;;;;;;5065243;28;20024;-66
2023/08/08 07:13:04;;;;;;;9.90;2.53;;;23.60;97.90;;;;;;5057905;28;20036;-66
2023/08/08 07:15:30;;;;;;;8.27;1.80;;;22.90;99.00;;;;;;5069885;28;20040;-66
2023/08/08 07:17:56;;;;;;;8.00;2.17;;;22.60;99.40;;;;;;5059251;28;20038;-66
2023/08/08 07:20:22;;;;;;;7.95;1.60;;;23.10;99.00;;;;;;5059885;28;20097;-66
2023/08/08 07:22:48;;;;;;;8.10;2.38;;;23.10;98.90;;;;;;5066074;28;20078;-66
2023/08/08 07:25:14;;;;;;;8.93;1.85;;;23.10;98.70;;;;;;5056530;28;20457;-66
2023/08/08 07:27:40;;;;;;;7.32;1.70;;;23.10;98.70;;;;;;5069179;28;20103;-66
2023/08/08 07:30:06;;;;;;;8.60;1.83;;;23.30;98.50;;;;;;5060153;28;20112;-66
2023/08/08 07:32:32;;;;;;;7.18;1.50;;;23.00;98.30;;;;;;5062153;28;20178;-67
2023/08/08 07:34:58;;;;;;;11.43;2.30;;;22.50;99.20;;;;;;5066881;28;20060;-66
2023/08/08 07:37:23;;;;;;;7.97;1.95;;;22.00;99.90;;;;;;5056358;28;20029;-66
2023/08/08 07:39:51;;;;;;;6.53;1.30;;;21.90;99.90;;;;;;5067975;28;20017;-66
2023/08/08 07:42:17;;;;;;;9.80;1.92;;;21.70;99.90;;;;;;5062004;28;20162;-66
2023/08/08 07:44:42;;;;;;;6.05;1.15;;;21.50;99.90;;;;;;5060758;28;20108;-66
2023/08/08 07:47:08;;;;;;;6.63;1.80;;;21.20;99.90;;;;;;5068311;28;20029;-66
2023/08/08 07:49:33;;;;;;;7.63;1.60;;;21.10;99.90;;;;;;5056200;28;20028;-66
2023/08/08 07:51:59;;;;;;;6.43;1.83;;;21.10;99.90;;;;;;5066353;28;20447;-67
2023/08/08 07:54:24;;;;;;;8.80;2.00;;;21.30;99.90;;;;;;5062336;28;20051;-66
2023/08/08 07:56:50;;;;;;;9.98;2.58;;;21.30;99.90;;;;;;5058925;28;20087;-67
2023/08/08 07:59:16;;;;;;;7.13;1.92;;;21.30;99.90;;;;;;5069024;28;20028;-67
2023/08/08 08:01:41;;;;;;;4.50;1.52;;;21.40;99.90;;;;;;5056260;28;20067;-67
2023/08/08 08:04:07;;;;;;;4.00;1.58;;;21.70;99.90;;;;;;5065128;28;20035;-66
2023/08/08 08:06:33;;;;;;;5.93;1.25;;;21.90;99.90;;;;;;5063017;28;20544;-66
2023/08/08 08:08:58;;;;;;;4.60;1.50;;;21.80;99.90;;;;;;5058033;28;20469;-67
2023/08/08 08:11:24;;;;;;;6.15;1.38;;;22.00;99.90;;;;;;5068667;28;20062;-66
2023/08/08 08:13:50;;;;;;;3.80;1.20;;;22.00;99.70;;;;;;5057475;28;20362;-66
2023/08/08 08:16:15;;;;;;;7.50;1.42;;;21.80;99.90;;;;;;5063218;28;20108;-66
2023/08/08 08:18:41;;;;;;;5.75;1.60;;;22.10;99.90;;;;;;5064303;28;20111;-67
2023/08/08 08:21:06;;;;;;;3.88;1.23;;;22.70;99.50;;;;;;5056667;28;20029;-65
2023/08/08 08:23:32;;;;;;;1.30;0.90;;;23.60;98.50;;;;;;5069016;28;20043;-66
2023/08/08 08:25:58;;;;;;;4.93;1.33;;;24.20;97.40;;;;;;5057545;28;20020;-66
2023/08/08 08:28:23;;;;;;;8.30;2.38;;;24.40;97.30;;;;;;5059661;28;20029;-66
2023/08/08 08:30:49;;;;;;;8.32;2.63;;;24.70;96.90;;;;;;5059899;28;20395;-65
2023/08/08 08:33:15;;;;;;;7.45;1.63;;;24.80;96.90;;;;;;5068848;28;20073;-66
2023/08/08 08:35:40;;;;;;;4.10;1.10;;;24.70;96.80;;;;;;5068057;28;20076;-67
2023/08/08 08:38:06;;;;;;;7.20;1.55;;;24.80;96.80;;;;;;5059562;28;20025;-67
2023/08/08 08:40:37;;;;;;;5.47;1.63;;;25.20;96.50;;;;;;5060881;28;20033;-67
2023/08/08 08:43:04;;;;;;;3.13;1.00;;;25.50;95.90;;;;;;5067210;28;20025;-66
2023/08/08 08:45:30;;;;;;;4.00;1.25;;;25.40;95.70;;;;;;5055497;28;20074;-67
2023/08/08 08:47:57;;;;;;;6.82;1.90;;;25.30;95.70;;;;;;5065921;28;20108;-67
2023/08/08 08:50:26;;;;;;;6.50;1.13;;;25.30;95.80;;;;;;5061397;28;20111;-67
2023/08/08 08:52:55;;;;;;;6.68;1.20;;;25.50;95.70;;;;;;5058046;28;20025;-67
2023/08/08 08:55:21;;;;;;;4.78;1.38;;;25.40;95.80;;;;;;5068166;28;20043;-66
2023/08/08 08:57:48;;;;;;;2.78;1.05;;;25.20;95.80;;;;;;5056465;28;20468;-66
2023/08/08 09:00:15;;;;;;;7.57;1.58;;;25.30;95.60;;;;;;5063787;28;20041;-66
2023/08/08 09:02:41;;;;;;;5.82;1.48;;;25.10;95.80;;;;;;5064194;28;20460;-66
2023/08/08 09:05:07;;;;;;;5.20;1.20;;;24.70;96.30;;;;;;5056820;28;20091;-66
2023/08/08 09:07:34;;;;;;;4.32;1.35;;;24.50;96.40;;;;;;5062351;28;20048;-66
2023/08/08 09:09:59;;;;;;;6.10;1.10;;;24.60;96.40;;;;;;5067732;28;20032;-67
2023/08/08 09:12:25;;;;;;;4.45;0.82;;;25.00;96.00;;;;;;5054307;28;20040;-66
2023/08/08 09:14:57;;;;;;;8.02;1.58;;;25.40;95.40;;;;;;5065058;28;20033;-66
2023/08/08 09:17:26;;;;;;;5.55;1.50;;;25.50;95.20;;;;;;5054706;28;20033;-66
2023/08/08 09:19:55;;;;;;;7.72;2.05;;;25.40;95.40;;;;;;5066371;28;20033;-66
2023/08/08 09:22:21;;;;;;;9.05;3.10;;;25.40;95.30;;;;;;5061052;28;20039;-66
2023/08/08 09:24:47;;;;;;;5.43;2.17;;;25.30;95.50;;;;;;5062530;28;20055;-66
2023/08/08 09:27:13;;;;;;;6.80;2.47;;;25.80;94.80;;;;;;5068130;28;20032;-65
2023/08/08 09:29:41;;;;;;;6.75;2.08;;;26.30;94.40;;;;;;5063218;28;20029;-66
2023/08/08 09:32:07;;;;;;;10.90;2.60;;;26.30;94.20;;;;;;5062171;28;20207;-66
2023/08/08 09:34:32;;;;;;;4.72;1.50;;;26.00;94.70;;;;;;5050683;28;20473;-66
2023/08/08 09:36:59;;;;;;;7.13;1.70;;;25.80;94.90;;;;;;5055331;28;20021;-67
2023/08/08 09:39:26;;;;;;;7.00;2.35;;;25.40;95.10;;;;;;5071485;28;20036;-66
2023/08/08 09:41:51;;;;;;;8.93;2.47;;;25.40;94.80;;;;;;5060308;28;20386;-66
2023/08/08 09:44:17;;;;;;;10.68;5.68;;;25.30;95.10;;;;;;5063668;28;20047;-66
2023/08/08 09:46:43;;;;;;;9.65;3.60;;;25.00;95.40;;;;;;5062787;28;20101;-66
2023/08/08 09:49:10;;;;;;;6.65;2.22;;;25.00;95.60;;;;;;5062724;28;20083;-66
2023/08/08 09:51:36;;;;;;;6.18;3.03;;;24.80;96.00;;;;;;5071542;28;20465;-66
2023/08/08 09:54:06;;;;;;;8.13;3.63;;;24.80;96.00;;;;;;5061133;28;20035;-66
2023/08/08 09:56:33;;;;;;;9.48;3.75;;;24.70;96.20;;;;;;5064126;28;20033;-67
2023/08/08 09:59:00;;;;;;;10.40;4.07;;;25.20;95.70;;;;;;5058419;28;20124;-67
2023/08/08 10:01:27;;;;;;;10.93;3.88;;;25.90;95.20;;;;;;5067989;28;20047;-67
2023/08/08 10:03:52;;;;;;;5.75;2.47;;;26.00;94.70;;;;;;5069296;28;20083;-66
2023/08/08 10:06:18;;;;;;;4.97;2.28;;;25.70;94.70;;;;;;5063791;28;20020;-66
2023/08/08 10:08:45;;;;;;;9.90;3.50;;;25.20;94.90;;;;;;5062364;28;20432;-66
2023/08/08 10:11:12;;;;;;;7.68;2.83;;;24.70;95.50;;;;;;5070745;28;20100;-66
2023/08/08 10:13:46;;;;;;;6.30;2.78;;;24.50;96.10;;;;;;5057353;28;20383;-65
2023/08/08 10:16:12;;;;;;;11.35;2.42;;;24.50;96.30;;;;;;5065202;28;20069;-67
2023/08/08 10:18:37;;;;;;;8.90;2.65;;;24.60;96.20;;;;;;5065543;28;20063;-66
2023/08/08 10:21:06;;;;;;;8.43;3.30;;;25.00;95.90;;;;;;5059318;28;20100;-65
2023/08/08 10:23:37;;;;;;;7.13;3.13;;;26.00;95.00;;;;;;5068456;28;20075;-66
2023/08/08 10:26:03;;;;;;;9.63;2.40;;;26.70;94.20;;;;;;5060346;28;20438;-66
2023/08/08 10:28:31;;;;;;;5.63;2.25;;;26.80;94.10;;;;;;5064623;28;20029;-66
2023/08/08 10:31:01;;;;;;;10.18;2.95;;;26.50;94.30;;;;;;5059951;28;20033;-66
2023/08/08 10:33:43;;;;;;;6.80;2.75;;;25.90;95.10;;;;;;5070252;28;20055;-66
2023/08/08 10:36:09;;;;;;;7.22;2.47;;;25.40;95.50;;;;;;5061973;28;20117;-65
2023/08/08 10:38:58;;;;;;;7.22;2.90;;;25.00;96.10;;;;;;5062808;28;20528;-65
2023/08/08 10:41:26;;;;;;;7.47;2.22;;;24.50;96.60;;;;;;5070473;28;20021;-65
2023/08/08 10:43:53;;;;;;;9.20;3.85;;;24.20;96.70;;;;;;5058861;28;20044;-66
2023/08/08 10:46:29;;;;;;;6.50;2.40;;;23.80;96.80;;;;;;5065165;28;20483;-66
2023/08/08 10:49:01;;;;;;;6.88;2.20;;;23.30;97.70;;;;;;5055141;28;20912;-65
2023/08/08 10:51:46;;;;;;;9.75;3.03;;;22.90;98.50;;;;;;5057286;28;20099;-65
2023/08/08 10:54:14;;;;;;;8.45;3.17;;;22.70;99.00;;;;;;5049691;28;20041;-65
2023/08/08 10:56:47;;;;;;;7.57;2.67;;;22.40;99.40;;;;;;5068126;28;20060;-65
2023/08/08 10:59:17;;;;;;;8.55;2.20;;;22.30;99.70;;;;;;5057619;28;20025;-65
2023/08/08 11:01:46;;;;;;;7.07;2.17;;;22.50;99.40;;;;;;5040360;28;20430;-65
2023/08/08 11:04:12;;;;;;;6.18;2.13;;;22.70;99.20;;;;;;5061146;28;20036;-67
2023/08/08 11:06:39;;;;;;;10.07;2.17;;;23.60;98.40;;;;;;5059975;28;20420;-67
2023/08/08 11:09:08;;;;;;;7.80;1.83;;;24.40;97.40;;;;;;5068619;28;20086;-66
2023/08/08 11:11:41;;;;;;;2.80;1.27;;;24.80;96.70;;;;;;5056951;28;20063;-66
2023/08/08 11:14:15;;;;;;;5.13;1.15;;;24.80;96.20;;;;;;5065880;28;20465;-65
2023/08/08 11:16:42;;;;;;;7.20;1.40;;;24.80;96.30;;;;;;5065216;28;20040;-66
2023/08/08 11:19:09;;;;;;;3.45;1.08;;;24.70;96.30;;;;;;5057132;28;20381;-66
2023/08/08 11:21:43;;;;;;;3.00;1.02;;;24.70;96.00;;;;;;5071378;28;20119;-66
2023/08/08 11:24:09;;;;;;;4.50;1.20;;;25.10;95.90;;;;;;5065656;28;20036;-66
2023/08/08 11:26:36;;;;;;;2.88;1.58;;;25.50;95.60;;;;;;5064551;28;20027;-66
2023/08/08 11:29:05;;;;;;;7.72;2.35;;;26.10;94.90;;;;;;5058127;28;20104;-66
2023/08/08 11:31:32;;;;;;;9.63;3.13;;;26.30;94.50;;;;;;5069729;28;20536;-66
2023/08/08 11:33:59;;;;;;;10.70;2.85;;;27.00;94.10;;;;;;5058793;28;20127;-66
2023/08/08 11:36:26;;;;;;;5.97;2.30;;;27.50;93.90;;;;;;5063264;28;20048;-66
2023/08/08 11:38:52;;;;;;;9.05;2.90;;;28.00;93.10;;;;;;5058127;28;20028;-66
2023/08/08 11:41:22;;;;;;;5.22;1.77;;;28.10;92.80;;;;;;5053639;28;20119;-66
2023/08/08 11:43:49;;;;;;;12.27;4.55;;;28.10;93.00;;;;;;5052471;28;20077;-66
2023/08/08 11:46:15;;;;;;;8.95;3.03;;;28.20;93.00;;;;;;5052491;28;20060;-66
2023/08/08 11:48:41;;;;;;;8.38;3.20;;;27.80;93.20;;;;;;5052010;28;20073;-66
2023/08/08 11:51:08;;;;;;;8.02;2.05;;;27.50;93.50;;;;;;5046763;28;20028;-66
2023/08/08 11:53:35;;;;;;;6.43;2.38;;;27.20;93.30;;;;;;5047200;28;20099;-66
2023/08/08 11:56:03;;;;;;;9.98;4.10;;;27.40;93.20;;;;;;5052264;28;20048;-66
2023/08/08 11:58:30;;;;;;;10.05;3.38;;;27.10;93.10;;;;;;5050419;28;20029;-66
2023/08/08 12:00:56;;;;;;;7.65;3.45;;;26.70;93.80;;;;;;5052274;28;20032;-66
2023/08/08 12:03:22;;;;;;;11.15;3.72;;;26.40;94.40;;;;;;5052627;28;20032;-67
2023/08/08 12:05:48;;;;;;;6.10;2.10;;;26.40;94.70;;;;;;5051618;28;20040;-66
2023/08/08 12:08:18;;;;;;;4.35;2.05;;;26.20;94.80;;;;;;5054571;28;20029;-66
2023/08/08 12:10:51;;;;;;;5.05;2.08;;;26.40;94.50;;;;;;5051930;28;20036;-66
2023/08/08 12:13:21;;;;;;;7.13;2.47;;;26.80;93.90;;;;;;5052133;28;20109;-66
2023/08/08 12:15:46;;;;;;;4.10;1.80;;;27.10;93.70;;;;;;5049806;28;20048;-65
2023/08/08 12:18:15;;;;;;;10.30;3.00;;;27.70;93.50;;;;;;5055027;28;20036;-66
2023/08/08 12:20:41;;;;;;;8.70;3.17;;;28.40;93.00;;;;;;5052486;28;20094;-66
2023/08/08 12:23:06;;;;;;;9.60;3.78;;;28.50;92.10;;;;;;5051949;28;20029;-66
2023/08/08 12:25:33;;;;;;;8.48;3.50;;;27.70;92.60;;;;;;5051774;28;20080;-65
2023/08/08 12:27:58;;;;;;;8.20;3.25;;;27.20;93.30;;;;;;5052089;28;20025;-65
2023/08/08 12:30:24;;;;;;;9.68;2.50;;;26.90;93.50;;;;;;5051922;28;20086;-66
2023/08/08 12:32:49;;;;;;;8.65;2.38;;;26.30;94.10;;;;;;5051646;28;20028;-66
2023/08/08 12:35:16;;;;;;;9.55;3.17;;;25.50;95.00;;;;;;5051674;28;20052;-65
2023/08/08 12:37:42;;;;;;;8.65;2.25;;;25.00;95.40;;;;;;5051834;28;20032;-65
2023/08/08 12:40:08;;;;;;;7.80;2.33;;;24.70;96.30;;;;;;5050329;28;20025;-64
2023/08/08 12:42:33;;;;;;;5.72;2.15;;;24.60;95.70;;;;;;5051778;28;20152;-66